Terminal Aerodrome Forecast
Issued by NWS

Home | Current Version | Previous Version | Text Only | Print | Product List | Glossary On
Versions: 1 2 3 4 5 6 7 8 9 10 11 12 13 14 15 16 17 18 19 20 21 22 23 24 25 26 27 28 29 30 31 32
738
FTUS41 KILN 011145 AAB
TAFLCK
TAF AMD
KLCK 011145Z 0112/0212 14003KT 3SM BR SCT080
      TEMPO 0112/0113 VRB03KT 1/4SM FG BKN002
     FM011300 19005KT P6SM SCT080 BKN250
     FM011800 20008KT P6SM VCSH BKN035
     FM020000 17003KT P6SM SCT025 BKN250
     FM020600 00000KT 4SM BR SCT025 BKN250=

USA.gov is the U.S. government's official web portal to all federal, state and local government web resources and services.